createdAt,value
2023-04-22T00:00:17.137Z,100379.34
2023-04-22T00:02:45.747Z,100368.13
2023-04-22T00:05:17.067Z,100374.56
2023-04-22T00:07:48.854Z,100378.63
2023-04-22T00:10:16.798Z,100379.75
2023-04-22T00:12:44.705Z,100377.69
2023-04-22T00:15:13.212Z,100379.25
2023-04-22T00:17:42.790Z,100385.25
2023-04-22T00:20:12.703Z,100379.72
2023-04-22T00:22:40.652Z,100376.50
2023-04-22T00:25:10.695Z,100387.69
2023-04-22T00:27:38.595Z,100381.03
2023-04-22T00:30:07.669Z,100385.09
2023-04-22T00:32:35.591Z,100386.78
2023-04-22T00:35:03.531Z,100385.00
2023-04-22T00:37:31.506Z,100385.41
2023-04-22T00:39:59.410Z,100385.59
2023-04-22T00:42:29.286Z,100384.13
2023-04-22T00:44:58.175Z,100377.47
2023-04-22T00:47:27.997Z,100389.34
2023-04-22T00:49:56.008Z,100386.13
2023-04-22T00:52:23.954Z,100394.38
2023-04-22T00:54:52.648Z,100392.03
2023-04-22T00:57:21.205Z,100389.03
2023-04-22T00:59:51.012Z,100386.13
2023-04-22T01:02:19.362Z,100394.97
2023-04-22T01:04:48.118Z,100392.47
2023-04-22T01:07:16.077Z,100383.84
2023-04-22T01:09:44.521Z,100398.94
2023-04-22T01:12:12.622Z,100389.56
2023-04-22T01:14:41.036Z,100399.44
2023-04-22T01:17:12.124Z,100405.28
2023-04-22T01:19:40.506Z,100390.34
2023-04-22T01:22:09.512Z,100370.25
2023-04-22T01:24:38.957Z,100398.69
2023-04-22T01:27:06.892Z,100393.97
2023-04-22T01:29:34.956Z,100383.25
2023-04-22T01:32:04.129Z,100389.66
2023-04-22T01:34:32.782Z,100391.41
2023-04-22T01:37:00.717Z,100375.84
2023-04-22T01:39:28.894Z,100375.63
2023-04-22T01:41:59.765Z,100386.00
2023-04-22T01:44:27.948Z,100376.19
2023-04-22T01:46:56.060Z,100378.16
2023-04-22T01:49:24.012Z,100382.56
2023-04-22T01:51:51.906Z,100379.16
2023-04-22T01:54:19.860Z,100375.47
2023-04-22T01:56:51.910Z,100372.78
2023-04-22T01:59:21.583Z,100376.75
2023-04-22T02:01:49.644Z,100371.94
2023-04-22T02:04:17.646Z,100372.06
2023-04-22T02:06:45.610Z,100368.53
2023-04-22T02:09:13.528Z,100342.72
2023-04-22T02:11:41.464Z,100364.16
2023-04-22T02:14:09.444Z,100359.47
2023-04-22T02:16:38.759Z,100360.50
2023-04-22T02:19:06.676Z,100365.78
2023-04-22T02:21:34.670Z,100363.84
2023-04-22T02:24:02.624Z,100362.09
2023-04-22T02:26:30.896Z,100356.25
2023-04-22T02:28:58.848Z,100358.81
2023-04-22T02:31:26.905Z,100364.75
2023-04-22T02:33:56.256Z,100358.81
2023-04-22T02:36:24.147Z,100357.06
2023-04-22T02:38:52.075Z,100358.72
2023-04-22T02:41:19.987Z,100349.00
2023-04-22T02:43:47.904Z,100342.03
2023-04-22T02:46:16.698Z,100361.84
2023-04-22T02:48:44.787Z,100357.69
2023-04-22T02:51:14.161Z,100367.59
2023-04-22T02:53:42.199Z,100363.53
2023-04-22T02:56:10.231Z,100357.25
2023-04-22T02:58:38.168Z,100363.72
2023-04-22T03:01:06.224Z,100359.75
2023-04-22T03:03:34.401Z,100358.28
2023-04-22T03:06:02.407Z,100362.31
2023-04-22T03:08:31.711Z,100355.97
2023-04-22T03:10:59.610Z,100355.69
2023-04-22T03:13:27.594Z,100356.66
2023-04-22T03:15:55.506Z,100357.09
2023-04-22T03:18:23.442Z,100357.97
2023-04-22T03:20:51.451Z,100355.03
2023-04-22T03:23:19.373Z,100362.53
2023-04-22T03:25:48.676Z,100364.63
2023-04-22T03:28:16.611Z,100356.13
2023-04-22T03:30:44.517Z,100366.66
2023-04-22T03:33:12.644Z,100368.50
2023-04-22T03:35:40.557Z,100353.94
2023-04-22T03:38:08.527Z,100372.94
2023-04-22T03:40:36.581Z,100376.00
2023-04-22T03:43:05.837Z,100379.66
2023-04-22T03:45:33.899Z,100389.38
2023-04-22T03:48:01.894Z,100388.88
2023-04-22T03:50:30.139Z,100389.34
2023-04-22T03:52:58.051Z,100405.47
2023-04-22T03:55:26.083Z,100410.31
2023-04-22T03:57:53.995Z,100421.91
2023-04-22T04:00:23.343Z,100422.91
2023-04-22T04:02:51.381Z,100427.53
2023-04-22T04:05:19.777Z,100430.19
2023-04-22T04:07:47.966Z,100428.44
2023-04-22T04:10:15.899Z,100439.84
2023-04-22T04:12:43.794Z,100440.00
2023-04-22T04:15:12.797Z,100441.94
2023-04-22T04:17:42.496Z,100450.63
2023-04-22T04:20:11.278Z,100446.72
2023-04-22T04:22:39.237Z,100447.19
2023-04-22T04:25:08.215Z,100453.97
2023-04-22T04:27:36.103Z,100456.72
2023-04-22T04:30:04.874Z,100464.66
2023-04-22T04:32:34.416Z,100461.44
2023-04-22T04:35:04.797Z,100471.59
2023-04-22T04:37:32.735Z,100475.97
2023-04-22T04:40:00.636Z,100478.06
2023-04-22T04:42:30.470Z,100469.53
2023-04-22T04:44:59.613Z,100488.09
2023-04-22T04:47:28.541Z,100484.16
2023-04-22T04:49:58.665Z,100491.66
2023-04-22T04:52:28.203Z,100495.16
2023-04-22T04:54:56.266Z,100495.03
2023-04-22T04:57:24.179Z,100494.69
2023-04-22T04:59:52.071Z,100507.84
2023-04-22T05:02:20.164Z,100501.81
2023-04-22T05:04:48.393Z,100498.88
2023-04-22T05:07:16.576Z,100507.94
2023-04-22T05:09:45.875Z,100497.28
2023-04-22T05:12:13.770Z,100510.13
2023-04-22T05:14:41.973Z,100502.56
2023-04-22T05:17:09.920Z,100506.16
2023-04-22T05:19:38.102Z,100508.75
2023-04-22T05:22:06.200Z,100517.06
2023-04-22T05:24:34.138Z,100522.78
2023-04-22T05:27:03.694Z,100525.38
2023-04-22T05:29:31.734Z,100523.06
2023-04-22T05:31:59.674Z,100529.09
2023-04-22T05:34:27.594Z,100535.63
2023-04-22T05:36:55.841Z,100530.69
2023-04-22T05:39:23.786Z,100532.59
2023-04-22T05:41:51.712Z,100535.88
2023-04-22T05:44:21.010Z,100536.78
2023-04-22T05:46:48.947Z,100528.47
2023-04-22T05:49:16.898Z,100525.63
2023-04-22T05:51:44.803Z,100519.19
2023-04-22T05:54:12.700Z,100529.19
2023-04-22T05:56:40.679Z,100525.78
2023-04-22T05:59:08.596Z,100504.03
2023-04-22T06:01:38.420Z,100536.16
2023-04-22T06:04:06.646Z,100535.22
2023-04-22T06:06:34.855Z,100548.06
2023-04-22T06:09:02.877Z,100545.66
2023-04-22T06:11:30.844Z,100552.09
2023-04-22T06:13:58.824Z,100555.13
2023-04-22T06:16:26.820Z,100558.31
2023-04-22T06:18:56.104Z,100566.34
2023-04-22T06:21:24.188Z,100574.06
2023-04-22T06:23:52.124Z,100579.09
2023-04-22T06:26:20.161Z,100584.88
2023-04-22T06:28:48.069Z,100580.94
2023-04-22T06:31:17.607Z,100584.50
2023-04-22T06:33:47.507Z,100584.59
2023-04-22T06:36:16.826Z,100585.06
2023-04-22T06:38:44.793Z,100589.50
2023-04-22T06:41:12.678Z,100595.34
2023-04-22T06:43:40.686Z,100601.69
2023-04-22T06:46:08.686Z,100597.72
2023-04-22T06:48:36.697Z,100607.03
2023-04-22T06:51:04.874Z,100608.19
2023-04-22T06:53:34.177Z,100610.63
2023-04-22T06:56:02.150Z,100604.34
2023-04-22T06:58:30.095Z,100612.72
2023-04-22T07:00:58.028Z,100611.16
2023-04-22T07:03:26.116Z,100615.09
2023-04-22T07:05:54.313Z,100604.91
2023-04-22T07:08:22.275Z,100611.34
2023-04-22T07:10:51.612Z,100627.16
2023-04-22T07:13:19.522Z,100617.16
2023-04-22T07:15:47.720Z,100617.88
2023-04-22T07:18:15.684Z,100620.34
2023-04-22T07:20:43.602Z,100626.44
2023-04-22T07:23:11.515Z,100624.94
2023-04-22T07:25:39.407Z,100609.41
2023-04-22T07:28:08.822Z,100626.75
2023-04-22T07:30:36.756Z,100626.59
2023-04-22T07:33:04.871Z,100620.63
2023-04-22T07:35:32.966Z,100622.53
2023-04-22T07:38:00.892Z,100622.22
2023-04-22T07:40:28.996Z,100624.25
2023-04-22T07:42:57.044Z,100625.13
2023-04-22T07:45:26.466Z,100629.38
2023-04-22T07:47:54.403Z,100631.22
2023-04-22T07:50:22.463Z,100631.56
2023-04-22T07:52:50.429Z,100637.28
2023-04-22T07:55:18.412Z,100637.94
2023-04-22T07:57:46.416Z,100637.22
2023-04-22T08:00:15.763Z,100636.44
2023-04-22T08:02:46.499Z,100643.94
2023-04-22T08:05:14.659Z,100635.25
2023-04-22T08:07:43.167Z,100575.97
2023-04-22T08:10:11.749Z,100644.56
2023-04-22T08:12:39.719Z,100640.44
2023-04-22T08:15:08.626Z,100638.38
2023-04-22T08:17:36.652Z,100639.94
2023-04-22T08:20:08.910Z,100643.13
2023-04-22T08:22:36.944Z,100651.03
2023-04-22T08:25:07.755Z,100640.91
2023-04-22T08:27:35.942Z,100647.31
2023-04-22T08:30:04.040Z,100627.00
2023-04-22T08:32:32.079Z,100641.97
2023-04-22T08:35:04.820Z,100617.38
2023-04-22T08:37:35.591Z,100637.44
2023-04-22T08:40:04.877Z,100647.81
2023-04-22T08:42:33.369Z,100651.59
2023-04-22T08:45:03.210Z,100659.25
2023-04-22T08:47:33.554Z,100647.22
2023-04-22T08:50:04.243Z,100653.81
2023-04-22T08:52:33.586Z,100648.81
2023-04-22T08:55:02.984Z,100632.38
2023-04-22T08:57:31.546Z,100575.75
2023-04-22T09:00:00.911Z,100653.31
2023-04-22T09:02:33.263Z,100658.72
2023-04-22T09:05:03.649Z,100657.25
2023-04-22T09:07:32.522Z,100655.41
2023-04-22T09:10:02.480Z,100653.91
2023-04-22T09:12:30.385Z,100655.81
2023-04-22T09:14:58.527Z,100658.88
2023-04-22T09:17:33.430Z,100668.81
2023-04-22T09:20:02.679Z,100648.66
2023-04-22T09:22:38.230Z,100650.88
2023-04-22T09:25:09.538Z,100586.09
2023-04-22T09:27:37.574Z,100660.91
2023-04-22T09:30:11.390Z,100644.41
2023-04-22T09:32:40.863Z,100655.47
2023-04-22T09:35:09.519Z,100639.09
2023-04-22T09:37:46.689Z,100638.22
2023-04-22T09:40:20.094Z,100633.34
2023-04-22T09:42:51.970Z,100639.41
2023-04-22T09:45:30.867Z,100636.06
2023-04-22T09:48:01.395Z,100611.28
2023-04-22T09:50:30.170Z,100641.81
2023-04-22T09:53:00.372Z,100635.31
2023-04-22T09:55:31.180Z,100642.66
2023-04-22T09:57:59.484Z,100627.19
2023-04-22T10:00:31.974Z,100626.25
2023-04-22T10:03:00.458Z,100632.63
2023-04-22T10:05:29.676Z,100627.91
2023-04-22T10:07:58.333Z,100613.19
2023-04-22T10:10:26.813Z,100610.91
2023-04-22T10:12:56.403Z,100616.88
2023-04-22T10:15:26.915Z,100616.38
2023-04-22T10:17:57.019Z,100608.22
2023-04-22T10:20:26.816Z,100594.75
2023-04-22T10:22:55.450Z,100611.69
2023-04-22T10:25:25.686Z,100580.13
2023-04-22T10:28:04.403Z,100592.56
2023-04-22T10:30:35.245Z,100604.34
2023-04-22T10:33:39.177Z,100600.09
2023-04-22T10:36:09.744Z,100583.50
2023-04-22T10:38:38.155Z,100603.13
2023-04-22T10:41:06.584Z,100600.50
2023-04-22T10:43:47.834Z,100589.31
2023-04-22T10:46:53.603Z,100599.47
2023-04-22T10:49:23.196Z,100595.56
2023-04-22T10:51:52.355Z,100595.19
2023-04-22T10:54:56.246Z,100580.06
2023-04-22T10:57:24.616Z,100588.16
2023-04-22T10:59:56.802Z,100583.97
2023-04-22T11:02:26.349Z,100580.41
2023-04-22T11:05:21.069Z,100590.88
2023-04-22T11:07:50.915Z,100588.41
2023-04-22T11:10:43.057Z,100584.69
2023-04-22T11:13:14.459Z,100589.50
2023-04-22T11:15:46.003Z,100589.81
2023-04-22T11:18:21.122Z,100587.22
2023-04-22T11:20:50.858Z,100587.44
2023-04-22T11:23:21.286Z,100589.47
2023-04-22T11:25:49.435Z,100587.53
2023-04-22T11:28:18.948Z,100576.72
2023-04-22T11:30:49.198Z,100584.09
2023-04-22T11:33:17.980Z,100577.69
2023-04-22T11:35:46.237Z,100585.25
2023-04-22T11:38:14.755Z,100567.91
2023-04-22T11:40:46.540Z,100574.25
2023-04-22T11:43:15.505Z,100579.97
2023-04-22T11:45:43.793Z,100561.28
2023-04-22T11:48:13.630Z,100577.41
2023-04-22T11:50:44.378Z,100565.06
2023-04-22T11:53:17.066Z,100566.00
2023-04-22T11:55:47.490Z,100570.91
2023-04-22T11:58:18.044Z,100576.41
2023-04-22T12:00:47.450Z,100516.59
2023-04-22T12:03:18.574Z,100579.53
2023-04-22T12:05:48.730Z,100576.47
2023-04-22T12:08:18.912Z,100577.91
2023-04-22T12:10:48.456Z,100576.25
2023-04-22T12:13:21.376Z,100583.06
2023-04-22T12:15:50.148Z,100572.19
2023-04-22T12:18:29.908Z,100563.69
2023-04-22T12:21:01.873Z,100566.31
2023-04-22T12:23:29.845Z,100570.16
2023-04-22T12:25:58.292Z,100565.63
2023-04-22T12:28:26.454Z,100534.91
2023-04-22T12:30:54.636Z,100568.81
2023-04-22T12:33:24.437Z,100558.50
2023-04-22T12:35:53.197Z,100553.06
2023-04-22T12:38:21.236Z,100556.72
2023-04-22T12:40:49.333Z,100553.59
2023-04-22T12:43:17.292Z,100571.28
2023-04-22T12:45:45.621Z,100566.13
2023-04-22T12:48:13.884Z,100559.06
2023-04-22T12:50:43.521Z,100524.44
2023-04-22T12:53:11.769Z,100523.78
2023-04-22T12:55:39.867Z,100530.44
2023-04-22T12:58:07.836Z,100536.41
2023-04-22T13:00:36.098Z,100532.06
2023-04-22T13:03:04.212Z,100544.50
2023-04-22T13:05:32.465Z,100537.84
2023-04-22T13:08:07.309Z,100544.69
2023-04-22T13:10:36.578Z,100543.16
2023-04-22T13:13:17.767Z,100542.53
2023-04-22T13:15:47.945Z,100551.59
2023-04-22T13:18:17.200Z,100543.69
2023-04-22T13:20:45.210Z,100517.69
2023-04-22T13:23:15.663Z,100543.94
2023-04-22T13:25:43.698Z,100549.63
2023-04-22T13:28:12.584Z,100560.00
2023-04-22T13:30:41.086Z,100503.88
2023-04-22T13:33:09.188Z,100551.69
2023-04-22T13:35:37.691Z,100551.38
2023-04-22T13:38:07.497Z,100555.44
2023-04-22T13:40:36.980Z,100554.91
2023-04-22T13:43:05.287Z,100542.50
2023-04-22T13:45:33.347Z,100554.31
2023-04-22T13:48:01.465Z,100556.03
2023-04-22T13:50:29.499Z,100550.34
2023-04-22T13:52:57.518Z,100508.25
2023-04-22T13:55:26.793Z,100558.75
2023-04-22T13:57:56.247Z,100567.63
2023-04-22T14:00:24.272Z,100563.28
2023-04-22T14:02:52.421Z,100560.44
2023-04-22T14:05:20.880Z,100546.66
2023-04-22T14:07:49.350Z,100546.94
2023-04-22T14:10:20.374Z,100563.56
2023-04-22T14:12:48.418Z,100553.09
2023-04-22T14:15:18.045Z,100561.63
2023-04-22T14:17:49.427Z,100571.97
2023-04-22T14:20:17.755Z,100544.50
2023-04-22T14:22:46.366Z,100567.19
2023-04-22T14:25:14.440Z,100561.63
2023-04-22T14:27:42.523Z,100574.94
2023-04-22T14:30:11.859Z,100566.75
2023-04-22T14:32:41.630Z,100580.00
2023-04-22T14:35:10.054Z,100575.41
2023-04-22T14:37:39.234Z,100568.06
2023-04-22T14:40:08.686Z,100575.44
2023-04-22T14:42:37.084Z,100575.56
2023-04-22T14:45:05.708Z,100567.03
2023-04-22T14:47:33.711Z,100585.81
2023-04-22T14:50:03.364Z,100588.91
2023-04-22T14:52:33.075Z,100577.50
2023-04-22T14:55:09.085Z,100584.66
2023-04-22T14:57:47.891Z,100586.06
2023-04-22T15:00:16.722Z,100583.31
2023-04-22T15:02:46.020Z,100576.41
2023-04-22T15:05:15.986Z,100587.34
2023-04-22T15:07:44.237Z,100592.03
2023-04-22T15:10:12.683Z,100567.66
2023-04-22T15:12:41.855Z,100561.59
2023-04-22T15:15:13.361Z,100577.91
2023-04-22T15:17:41.948Z,100570.84
2023-04-22T15:20:11.040Z,100578.44
2023-04-22T15:22:42.303Z,100570.19
2023-04-22T15:25:11.497Z,100570.03
2023-04-22T15:27:40.148Z,100568.91
2023-04-22T15:30:10.970Z,100569.75
2023-04-22T15:32:40.293Z,100532.94
2023-04-22T15:35:09.429Z,100575.81
2023-04-22T15:37:37.780Z,100561.44
2023-04-22T15:40:10.159Z,100577.31
2023-04-22T15:42:38.242Z,100578.22
2023-04-22T15:45:07.652Z,100583.47
2023-04-22T15:47:36.702Z,100576.66
2023-04-22T15:50:09.078Z,100570.72
2023-04-22T15:52:38.998Z,100583.75
2023-04-22T15:55:09.459Z,100576.25
2023-04-22T15:57:37.613Z,100598.69
2023-04-22T16:00:12.599Z,100596.88
2023-04-22T16:02:42.724Z,100608.22
2023-04-22T16:05:11.765Z,100597.94
2023-04-22T16:07:40.358Z,100606.75
2023-04-22T16:10:11.360Z,100593.34
2023-04-22T16:12:39.276Z,100608.47
2023-04-22T16:15:08.862Z,100606.53
2023-04-22T16:17:36.927Z,100593.66
2023-04-22T16:20:06.131Z,100624.03
2023-04-22T16:22:34.539Z,100555.56
2023-04-22T16:25:02.971Z,100617.63
2023-04-22T16:27:32.635Z,100631.41
2023-04-22T16:30:00.636Z,100625.59
2023-04-22T16:32:28.802Z,100585.63
2023-04-22T16:34:57.155Z,100629.81
2023-04-22T16:37:25.305Z,100630.31
2023-04-22T16:39:53.282Z,100626.56
2023-04-22T16:42:21.564Z,100579.25
2023-04-22T16:44:51.525Z,100584.22
2023-04-22T16:47:19.900Z,100638.19
2023-04-22T16:49:48.014Z,100636.78
2023-04-22T16:52:16.136Z,100635.38
2023-04-22T16:54:44.064Z,100640.63
2023-04-22T16:57:12.538Z,100639.00
2023-04-22T16:59:40.607Z,100637.28
2023-04-22T17:02:10.400Z,100634.97
2023-04-22T17:04:38.390Z,100640.38
2023-04-22T17:07:06.319Z,100652.41
2023-04-22T17:09:34.239Z,100653.84
2023-04-22T17:12:02.208Z,100654.22
2023-04-22T17:14:30.150Z,100664.56
2023-04-22T17:16:58.073Z,100660.75
2023-04-22T17:19:27.941Z,100659.47
2023-04-22T17:21:56.053Z,100664.94
2023-04-22T17:24:24.939Z,100674.44
2023-04-22T17:26:52.956Z,100671.34
2023-04-22T17:29:21.953Z,100670.06
2023-04-22T17:31:50.319Z,100679.06
2023-04-22T17:34:18.282Z,100683.00
2023-04-22T17:36:47.627Z,100681.41
2023-04-22T17:39:15.581Z,100682.72
2023-04-22T17:41:43.597Z,100684.88
2023-04-22T17:44:11.502Z,100687.00
2023-04-22T17:46:41.246Z,100666.41
2023-04-22T17:49:09.265Z,100691.72
2023-04-22T17:51:37.234Z,100697.38
2023-04-22T17:54:07.164Z,100697.81
2023-04-22T17:56:35.463Z,100702.16
2023-04-22T17:59:03.378Z,100721.97
2023-04-22T18:01:31.465Z,100712.38
2023-04-22T18:03:59.942Z,100706.63
2023-04-22T18:06:29.057Z,100724.47
2023-04-22T18:08:57.172Z,100719.13
2023-04-22T18:11:27.989Z,100718.53
2023-04-22T18:13:56.159Z,100720.84
2023-04-22T18:16:24.200Z,100717.53
2023-04-22T18:18:52.313Z,100728.47
2023-04-22T18:21:20.509Z,100729.13
2023-04-22T18:23:48.606Z,100689.91
2023-04-22T18:26:16.764Z,100734.16
2023-04-22T18:28:46.091Z,100740.72
2023-04-22T18:31:14.101Z,100740.81
2023-04-22T18:33:42.023Z,100737.19
2023-04-22T18:36:10.216Z,100737.28
2023-04-22T18:38:38.905Z,100738.31
2023-04-22T18:41:07.057Z,100737.25
2023-04-22T18:43:34.998Z,100736.31
2023-04-22T18:46:04.350Z,100736.94
2023-04-22T18:48:32.381Z,100731.44
2023-04-22T18:51:00.326Z,100745.69
2023-04-22T18:53:28.272Z,100749.25
2023-04-22T18:55:56.469Z,100750.78
2023-04-22T18:58:24.492Z,100742.97
2023-04-22T19:00:53.015Z,100734.97
2023-04-22T19:03:22.536Z,100744.06
2023-04-22T19:05:51.140Z,100745.59
2023-04-22T19:08:19.070Z,100745.34
2023-04-22T19:10:47.051Z,100741.50
2023-04-22T19:13:28.626Z,100742.81
2023-04-22T19:15:58.042Z,100738.34
2023-04-22T19:18:27.431Z,100733.31
2023-04-22T19:20:55.480Z,100735.28
2023-04-22T19:23:23.501Z,100733.22
2023-04-22T19:25:51.666Z,100732.69
2023-04-22T19:28:19.576Z,100734.19
2023-04-22T19:30:47.660Z,100728.72
2023-04-22T19:33:16.016Z,100732.53
2023-04-22T19:35:45.814Z,100734.59
2023-04-22T19:38:16.386Z,100735.53
2023-04-22T19:40:44.331Z,100742.56
2023-04-22T19:43:12.344Z,100734.75
2023-04-22T19:45:40.252Z,100731.78
2023-04-22T19:48:09.193Z,100736.34
2023-04-22T19:50:37.374Z,100731.41
2023-04-22T19:53:08.321Z,100741.31
2023-04-22T19:55:37.516Z,100734.41
2023-04-22T19:58:06.037Z,100745.16
2023-04-22T20:00:35.299Z,100733.25
2023-04-22T20:03:04.303Z,100740.88
2023-04-22T20:05:32.849Z,100749.81
2023-04-22T20:08:01.998Z,100735.78
2023-04-22T20:10:31.792Z,100732.53
2023-04-22T20:13:00.571Z,100744.59
2023-04-22T20:15:28.798Z,100748.41
2023-04-22T20:17:57.129Z,100734.03
2023-04-22T20:20:25.690Z,100752.41
2023-04-22T20:22:55.871Z,100742.22
2023-04-22T20:25:24.950Z,100738.31
2023-04-22T20:27:54.604Z,100739.22
2023-04-22T20:30:22.701Z,100713.34
2023-04-22T20:32:51.617Z,100736.84
2023-04-22T20:35:20.189Z,100721.97
2023-04-22T20:37:50.902Z,100734.16
2023-04-22T20:40:19.166Z,100740.84
2023-04-22T20:42:47.054Z,100752.16
2023-04-22T20:45:17.963Z,100753.47
2023-04-22T20:47:46.272Z,100751.91
2023-04-22T20:50:14.862Z,100748.38
2023-04-22T20:52:43.382Z,100753.38
2023-04-22T20:55:11.483Z,100755.78
2023-04-22T20:57:39.408Z,100755.97
2023-04-22T21:00:10.258Z,100756.44
2023-04-22T21:02:41.151Z,100760.63
2023-04-22T21:05:11.982Z,100763.75
2023-04-22T21:07:40.856Z,100756.44
2023-04-22T21:10:10.348Z,100765.00
2023-04-22T21:12:39.277Z,100767.50
2023-04-22T21:15:08.845Z,100774.28
2023-04-22T21:17:39.915Z,100701.34
2023-04-22T21:20:11.543Z,100762.22
2023-04-22T21:22:43.594Z,100760.53
2023-04-22T21:25:15.974Z,100761.72
2023-04-22T21:27:44.426Z,100758.09
2023-04-22T21:30:13.846Z,100761.66
2023-04-22T21:32:42.408Z,100755.25
2023-04-22T21:35:12.351Z,100755.41
2023-04-22T21:37:40.316Z,100757.28
2023-04-22T21:40:13.068Z,100757.84
2023-04-22T21:42:41.723Z,100739.53
2023-04-22T21:45:10.324Z,100750.25
2023-04-22T21:47:38.230Z,100742.59
2023-04-22T21:50:07.304Z,100750.31
2023-04-22T21:52:36.753Z,100759.31
2023-04-22T21:55:05.009Z,100751.25
2023-04-22T21:57:32.959Z,100755.41
2023-04-22T22:00:01.279Z,100758.47
2023-04-22T22:02:29.352Z,100749.44
2023-04-22T22:04:57.332Z,100758.38
2023-04-22T22:07:26.946Z,100755.97
2023-04-22T22:09:56.224Z,100757.94
2023-04-22T22:12:24.299Z,100762.84
2023-04-22T22:14:52.223Z,100756.91
2023-04-22T22:17:20.671Z,100759.41
2023-04-22T22:19:48.763Z,100757.00
2023-04-22T22:22:16.670Z,100751.06
2023-04-22T22:24:45.590Z,100747.03
2023-04-22T22:27:15.069Z,100745.75
2023-04-22T22:29:42.982Z,100748.25
2023-04-22T22:32:10.939Z,100744.91
2023-04-22T22:34:39.197Z,100745.19
2023-04-22T22:37:07.407Z,100740.16
2023-04-22T22:39:35.710Z,100740.81
2023-04-22T22:42:03.646Z,100747.19
2023-04-22T22:44:32.952Z,100744.72
2023-04-22T22:47:00.888Z,100736.47
2023-04-22T22:49:28.868Z,100739.38
2023-04-22T22:51:56.892Z,100734.19
2023-04-22T22:54:24.801Z,100726.53
2023-04-22T22:56:52.783Z,100723.81
2023-04-22T22:59:20.724Z,100733.19
2023-04-22T23:01:50.515Z,100731.19
2023-04-22T23:04:18.682Z,100735.91
2023-04-22T23:06:46.675Z,100732.22
2023-04-22T23:09:18.851Z,100736.50
2023-04-22T23:11:48.397Z,100736.34
2023-04-22T23:14:17.909Z,100731.63
2023-04-22T23:16:46.349Z,100737.81
2023-04-22T23:19:17.119Z,100729.03
2023-04-22T23:21:46.124Z,100727.34
2023-04-22T23:24:16.158Z,100732.56
2023-04-22T23:26:44.379Z,100726.00
2023-04-22T23:29:12.801Z,100729.56
2023-04-22T23:31:42.872Z,100734.25
2023-04-22T23:34:11.042Z,100688.56
2023-04-22T23:36:40.681Z,100734.19
2023-04-22T23:39:09.768Z,100739.53
2023-04-22T23:41:38.151Z,100725.13
2023-04-22T23:44:06.498Z,100729.00
2023-04-22T23:46:34.503Z,100726.50
2023-04-22T23:49:03.007Z,100727.22
2023-04-22T23:51:30.972Z,100727.41
2023-04-22T23:54:00.304Z,100721.47
2023-04-22T23:56:28.779Z,100737.78
2023-04-22T23:58:57.385Z,100725.38
